sensor_id;sensor_type;location;lat;lon;timestamp;P1;durP1;ratioP1;P2;durP2;ratioP2
8958;SDS011;4514;49.476;8.484;2023-03-01T00:02:22;10.80;;;9.57;;
8958;SDS011;4514;49.476;8.484;2023-03-01T00:04:48;10.07;;;9.07;;
8958;SDS011;4514;49.476;8.484;2023-03-01T00:07:13;10.83;;;9.73;;
8958;SDS011;4514;49.476;8.484;2023-03-01T00:09:41;11.03;;;9.27;;
8958;SDS011;4514;49.476;8.484;2023-03-01T00:12:11;10.63;;;9.47;;
8958;SDS011;4514;49.476;8.484;2023-03-01T00:14:36;10.97;;;9.87;;
8958;SDS011;4514;49.476;8.484;2023-03-01T00:17:04;10.60;;;9.50;;
8958;SDS011;4514;49.476;8.484;2023-03-01T00:19:29;11.20;;;9.90;;
8958;SDS011;4514;49.476;8.484;2023-03-01T00:21:55;11.30;;;10.13;;
8958;SDS011;4514;49.476;8.484;2023-03-01T00:24:20;10.80;;;9.70;;
8958;SDS011;4514;49.476;8.484;2023-03-01T00:26:48;11.17;;;9.80;;
8958;SDS011;4514;49.476;8.484;2023-03-01T00:29:14;10.77;;;9.63;;
8958;SDS011;4514;49.476;8.484;2023-03-01T00:31:40;10.30;;;9.30;;
8958;SDS011;4514;49.476;8.484;2023-03-01T00:34:05;10.93;;;9.83;;
8958;SDS011;4514;49.476;8.484;2023-03-01T00:36:32;11.03;;;9.93;;
8958;SDS011;4514;49.476;8.484;2023-03-01T00:39:02;11.40;;;10.20;;
8958;SDS011;4514;49.476;8.484;2023-03-01T00:41:32;12.03;;;10.03;;
8958;SDS011;4514;49.476;8.484;2023-03-01T00:44:02;10.13;;;9.20;;
8958;SDS011;4514;49.476;8.484;2023-03-01T00:46:30;12.00;;;10.37;;
8958;SDS011;4514;49.476;8.484;2023-03-01T00:48:58;11.57;;;10.37;;
8958;SDS011;4514;49.476;8.484;2023-03-01T00:51:26;11.97;;;10.53;;
8958;SDS011;4514;49.476;8.484;2023-03-01T00:53:53;11.40;;;10.20;;
8958;SDS011;4514;49.476;8.484;2023-03-01T00:56:20;11.23;;;10.13;;
8958;SDS011;4514;49.476;8.484;2023-03-01T00:58:45;12.17;;;10.97;;
8958;SDS011;4514;49.476;8.484;2023-03-01T01:01:18;11.53;;;10.33;;
8958;SDS011;4514;49.476;8.484;2023-03-01T01:03:54;11.47;;;10.27;;
8958;SDS011;4514;49.476;8.484;2023-03-01T01:06:23;12.60;;;11.30;;
8958;SDS011;4514;49.476;8.484;2023-03-01T01:08:49;13.67;;;11.00;;
8958;SDS011;4514;49.476;8.484;2023-03-01T01:11:20;12.03;;;10.73;;
8958;SDS011;4514;49.476;8.484;2023-03-01T01:13:49;11.43;;;10.27;;
8958;SDS011;4514;49.476;8.484;2023-03-01T01:16:15;11.90;;;10.17;;
8958;SDS011;4514;49.476;8.484;2023-03-01T01:18:44;12.07;;;10.87;;
8958;SDS011;4514;49.476;8.484;2023-03-01T01:21:13;10.90;;;9.80;;
8958;SDS011;4514;49.476;8.484;2023-03-01T01:23:45;11.53;;;10.40;;
8958;SDS011;4514;49.476;8.484;2023-03-01T01:26:15;12.73;;;11.17;;
8958;SDS011;4514;49.476;8.484;2023-03-01T01:28:42;13.25;;;11.90;;
8958;SDS011;4514;49.476;8.484;2023-03-01T01:31:10;12.47;;;11.27;;
8958;SDS011;4514;49.476;8.484;2023-03-01T01:33:35;12.17;;;10.83;;
8958;SDS011;4514;49.476;8.484;2023-03-01T01:36:04;11.70;;;10.60;;
8958;SDS011;4514;49.476;8.484;2023-03-01T01:38:32;12.43;;;11.13;;
8958;SDS011;4514;49.476;8.484;2023-03-01T01:40:57;11.97;;;10.80;;
8958;SDS011;4514;49.476;8.484;2023-03-01T01:43:25;13.30;;;11.90;;
8958;SDS011;4514;49.476;8.484;2023-03-01T01:45:58;12.77;;;11.47;;
8958;SDS011;4514;49.476;8.484;2023-03-01T01:48:31;13.02;;;11.73;;
8958;SDS011;4514;49.476;8.484;2023-03-01T01:51:05;12.43;;;11.13;;
8958;SDS011;4514;49.476;8.484;2023-03-01T01:53:36;12.73;;;11.43;;
8958;SDS011;4514;49.476;8.484;2023-03-01T01:56:05;12.17;;;10.87;;
8958;SDS011;4514;49.476;8.484;2023-03-01T01:58:31;12.57;;;10.93;;
8958;SDS011;4514;49.476;8.484;2023-03-01T02:00:59;12.93;;;11.43;;
8958;SDS011;4514;49.476;8.484;2023-03-01T02:03:27;12.87;;;11.00;;
8958;SDS011;4514;49.476;8.484;2023-03-01T02:08:26;13.27;;;11.87;;
8958;SDS011;4514;49.476;8.484;2023-03-01T02:10:55;13.53;;;12.13;;
8958;SDS011;4514;49.476;8.484;2023-03-01T02:13:21;13.77;;;11.50;;
8958;SDS011;4514;49.476;8.484;2023-03-01T02:15:46;12.40;;;11.20;;
8958;SDS011;4514;49.476;8.484;2023-03-01T02:18:12;14.77;;;12.03;;
8958;SDS011;4514;49.476;8.484;2023-03-01T02:23:44;14.63;;;12.47;;
8958;SDS011;4514;49.476;8.484;2023-03-01T02:28:47;14.73;;;12.37;;
8958;SDS011;4514;49.476;8.484;2023-03-01T02:31:14;13.67;;;12.13;;
8958;SDS011;4514;49.476;8.484;2023-03-01T02:34:02;13.37;;;11.97;;
8958;SDS011;4514;49.476;8.484;2023-03-01T02:36:36;13.90;;;12.43;;
8958;SDS011;4514;49.476;8.484;2023-03-01T02:39:04;13.97;;;12.50;;
8958;SDS011;4514;49.476;8.484;2023-03-01T02:41:36;13.10;;;11.70;;
8958;SDS011;4514;49.476;8.484;2023-03-01T02:44:07;13.40;;;12.00;;
8958;SDS011;4514;49.476;8.484;2023-03-01T02:46:41;14.77;;;12.63;;
8958;SDS011;4514;49.476;8.484;2023-03-01T02:49:18;13.63;;;12.23;;
8958;SDS011;4514;49.476;8.484;2023-03-01T02:52:00;14.03;;;12.63;;
8958;SDS011;4514;49.476;8.484;2023-03-01T02:57:18;13.43;;;12.10;;
8958;SDS011;4514;49.476;8.484;2023-03-01T02:59:44;14.73;;;13.23;;
8958;SDS011;4514;49.476;8.484;2023-03-01T03:02:21;15.13;;;12.50;;
8958;SDS011;4514;49.476;8.484;2023-03-01T03:05:02;14.50;;;12.97;;
8958;SDS011;4514;49.476;8.484;2023-03-01T03:07:31;13.98;;;12.50;;
8958;SDS011;4514;49.476;8.484;2023-03-01T03:09:59;15.57;;;11.97;;
8958;SDS011;4514;49.476;8.484;2023-03-01T03:12:26;14.00;;;12.43;;
8958;SDS011;4514;49.476;8.484;2023-03-01T03:14:54;14.07;;;12.67;;
8958;SDS011;4514;49.476;8.484;2023-03-01T03:17:22;13.90;;;12.37;;
8958;SDS011;4514;49.476;8.484;2023-03-01T03:19:47;13.73;;;12.33;;
8958;SDS011;4514;49.476;8.484;2023-03-01T03:22:15;15.40;;;12.70;;
8958;SDS011;4514;49.476;8.484;2023-03-01T03:24:40;14.60;;;12.60;;
8958;SDS011;4514;49.476;8.484;2023-03-01T03:27:06;14.20;;;12.73;;
8958;SDS011;4514;49.476;8.484;2023-03-01T03:29:32;14.37;;;12.67;;
8958;SDS011;4514;49.476;8.484;2023-03-01T03:31:58;14.27;;;12.77;;
8958;SDS011;4514;49.476;8.484;2023-03-01T03:34:23;15.37;;;12.43;;
8958;SDS011;4514;49.476;8.484;2023-03-01T03:36:58;14.93;;;13.30;;
8958;SDS011;4514;49.476;8.484;2023-03-01T03:39:28;15.70;;;13.07;;
8958;SDS011;4514;49.476;8.484;2023-03-01T03:41:53;13.80;;;12.37;;
8958;SDS011;4514;49.476;8.484;2023-03-01T03:44:20;14.57;;;13.03;;
8958;SDS011;4514;49.476;8.484;2023-03-01T03:46:45;13.70;;;12.30;;
8958;SDS011;4514;49.476;8.484;2023-03-01T03:49:11;14.13;;;12.63;;
8958;SDS011;4514;49.476;8.484;2023-03-01T03:51:39;14.77;;;13.27;;
8958;SDS011;4514;49.476;8.484;2023-03-01T03:54:04;15.70;;;13.03;;
8958;SDS011;4514;49.476;8.484;2023-03-01T03:56:29;16.20;;;14.50;;
8958;SDS011;4514;49.476;8.484;2023-03-01T03:58:55;15.93;;;14.33;;
8958;SDS011;4514;49.476;8.484;2023-03-01T04:01:22;14.73;;;13.33;;
8958;SDS011;4514;49.476;8.484;2023-03-01T04:03:48;15.50;;;13.87;;
8958;SDS011;4514;49.476;8.484;2023-03-01T04:06:13;14.90;;;13.30;;
8958;SDS011;4514;49.476;8.484;2023-03-01T04:08:39;15.37;;;13.43;;
8958;SDS011;4514;49.476;8.484;2023-03-01T04:11:05;16.43;;;12.90;;
8958;SDS011;4514;49.476;8.484;2023-03-01T04:13:52;14.27;;;12.57;;
8958;SDS011;4514;49.476;8.484;2023-03-01T04:16:18;14.97;;;13.37;;
8958;SDS011;4514;49.476;8.484;2023-03-01T04:18:44;14.30;;;12.80;;
8958;SDS011;4514;49.476;8.484;2023-03-01T04:21:11;14.87;;;13.37;;
8958;SDS011;4514;49.476;8.484;2023-03-01T04:23:39;16.30;;;13.97;;
8958;SDS011;4514;49.476;8.484;2023-03-01T04:26:06;14.47;;;12.97;;
8958;SDS011;4514;49.476;8.484;2023-03-01T04:28:33;17.90;;;13.57;;
8958;SDS011;4514;49.476;8.484;2023-03-01T04:31:07;15.90;;;14.23;;
8958;SDS011;4514;49.476;8.484;2023-03-01T04:33:53;16.67;;;13.97;;
8958;SDS011;4514;49.476;8.484;2023-03-01T04:36:23;15.13;;;13.60;;
8958;SDS011;4514;49.476;8.484;2023-03-01T04:38:50;16.80;;;13.53;;
8958;SDS011;4514;49.476;8.484;2023-03-01T04:41:18;15.50;;;13.60;;
8958;SDS011;4514;49.476;8.484;2023-03-01T04:43:45;15.00;;;13.40;;
8958;SDS011;4514;49.476;8.484;2023-03-01T04:46:17;15.77;;;14.17;;
8958;SDS011;4514;49.476;8.484;2023-03-01T04:48:46;15.53;;;13.93;;
8958;SDS011;4514;49.476;8.484;2023-03-01T04:51:12;16.55;;;14.85;;
8958;SDS011;4514;49.476;8.484;2023-03-01T04:53:41;15.60;;;13.90;;
8958;SDS011;4514;49.476;8.484;2023-03-01T04:56:07;15.33;;;13.50;;
8958;SDS011;4514;49.476;8.484;2023-03-01T04:58:34;15.50;;;13.90;;
8958;SDS011;4514;49.476;8.484;2023-03-01T05:01:07;14.63;;;12.97;;
8958;SDS011;4514;49.476;8.484;2023-03-01T05:03:40;17.63;;;15.17;;
8958;SDS011;4514;49.476;8.484;2023-03-01T05:06:08;16.53;;;14.87;;
8958;SDS011;4514;49.476;8.484;2023-03-01T05:08:39;17.67;;;14.93;;
8958;SDS011;4514;49.476;8.484;2023-03-01T05:11:06;17.65;;;15.70;;
8958;SDS011;4514;49.476;8.484;2023-03-01T05:13:33;17.08;;;14.98;;
8958;SDS011;4514;49.476;8.484;2023-03-01T05:16:00;16.20;;;13.93;;
8958;SDS011;4514;49.476;8.484;2023-03-01T05:18:27;17.87;;;14.63;;
8958;SDS011;4514;49.476;8.484;2023-03-01T05:21:05;19.17;;;14.50;;
8958;SDS011;4514;49.476;8.484;2023-03-01T05:23:32;18.00;;;15.17;;
8958;SDS011;4514;49.476;8.484;2023-03-01T05:25:58;16.73;;;15.03;;
8958;SDS011;4514;49.476;8.484;2023-03-01T05:28:32;19.07;;;15.47;;
8958;SDS011;4514;49.476;8.484;2023-03-01T05:31:00;16.53;;;14.83;;
8958;SDS011;4514;49.476;8.484;2023-03-01T05:33:26;16.83;;;15.10;;
8958;SDS011;4514;49.476;8.484;2023-03-01T05:35:52;16.13;;;14.43;;
8958;SDS011;4514;49.476;8.484;2023-03-01T05:38:20;17.43;;;15.63;;
8958;SDS011;4514;49.476;8.484;2023-03-01T05:40:48;16.87;;;15.07;;
8958;SDS011;4514;49.476;8.484;2023-03-01T05:43:14;18.57;;;16.73;;
8958;SDS011;4514;49.476;8.484;2023-03-01T05:45:41;18.07;;;14.93;;
8958;SDS011;4514;49.476;8.484;2023-03-01T05:48:07;16.80;;;15.00;;
8958;SDS011;4514;49.476;8.484;2023-03-01T05:50:35;17.57;;;15.57;;
8958;SDS011;4514;49.476;8.484;2023-03-01T05:53:03;17.33;;;15.53;;
8958;SDS011;4514;49.476;8.484;2023-03-01T05:55:35;17.20;;;15.37;;
8958;SDS011;4514;49.476;8.484;2023-03-01T05:58:01;22.13;;;16.40;;
8958;SDS011;4514;49.476;8.484;2023-03-01T06:00:28;18.10;;;16.17;;
8958;SDS011;4514;49.476;8.484;2023-03-01T06:02:56;18.33;;;16.13;;
8958;SDS011;4514;49.476;8.484;2023-03-01T06:05:25;17.17;;;15.37;;
8958;SDS011;4514;49.476;8.484;2023-03-01T06:07:51;16.83;;;15.07;;
8958;SDS011;4514;49.476;8.484;2023-03-01T06:10:21;18.23;;;15.30;;
8958;SDS011;4514;49.476;8.484;2023-03-01T06:12:47;18.60;;;16.00;;
8958;SDS011;4514;49.476;8.484;2023-03-01T06:15:14;17.13;;;15.30;;
8958;SDS011;4514;49.476;8.484;2023-03-01T06:17:41;18.60;;;15.73;;
8958;SDS011;4514;49.476;8.484;2023-03-01T06:20:18;18.30;;;16.40;;
8958;SDS011;4514;49.476;8.484;2023-03-01T06:22:49;18.08;;;16.17;;
8958;SDS011;4514;49.476;8.484;2023-03-01T06:25:16;17.57;;;15.67;;
8958;SDS011;4514;49.476;8.484;2023-03-01T06:27:46;18.57;;;16.43;;
8958;SDS011;4514;49.476;8.484;2023-03-01T06:32:41;19.37;;;16.17;;
8958;SDS011;4514;49.476;8.484;2023-03-01T06:35:10;18.47;;;16.47;;
8958;SDS011;4514;49.476;8.484;2023-03-01T06:37:38;17.37;;;15.20;;
8958;SDS011;4514;49.476;8.484;2023-03-01T06:40:04;18.60;;;15.73;;
8958;SDS011;4514;49.476;8.484;2023-03-01T06:42:37;19.83;;;15.83;;
8958;SDS011;4514;49.476;8.484;2023-03-01T06:45:04;18.63;;;16.70;;
8958;SDS011;4514;49.476;8.484;2023-03-01T06:47:31;17.57;;;15.70;;
8958;SDS011;4514;49.476;8.484;2023-03-01T06:50:00;17.97;;;16.07;;
8958;SDS011;4514;49.476;8.484;2023-03-01T06:52:29;18.92;;;16.92;;
8958;SDS011;4514;49.476;8.484;2023-03-01T06:54:54;17.43;;;15.40;;
8958;SDS011;4514;49.476;8.484;2023-03-01T06:57:19;19.67;;;15.77;;
8958;SDS011;4514;49.476;8.484;2023-03-01T06:59:46;17.57;;;15.70;;
8958;SDS011;4514;49.476;8.484;2023-03-01T07:02:12;19.60;;;15.70;;
8958;SDS011;4514;49.476;8.484;2023-03-01T07:04:40;17.90;;;15.97;;
8958;SDS011;4514;49.476;8.484;2023-03-01T07:07:05;22.03;;;18.93;;
8958;SDS011;4514;49.476;8.484;2023-03-01T07:09:31;25.87;;;20.57;;
8958;SDS011;4514;49.476;8.484;2023-03-01T07:12:03;22.33;;;18.90;;
8958;SDS011;4514;49.476;8.484;2023-03-01T07:14:31;20.13;;;17.93;;
8958;SDS011;4514;49.476;8.484;2023-03-01T07:16:57;20.10;;;16.80;;
8958;SDS011;4514;49.476;8.484;2023-03-01T07:19:22;19.27;;;17.07;;
8958;SDS011;4514;49.476;8.484;2023-03-01T07:21:48;26.50;;;20.27;;
8958;SDS011;4514;49.476;8.484;2023-03-01T07:24:15;19.47;;;17.40;;
8958;SDS011;4514;49.476;8.484;2023-03-01T07:26:41;18.80;;;15.63;;
8958;SDS011;4514;49.476;8.484;2023-03-01T07:29:07;24.07;;;17.53;;
8958;SDS011;4514;49.476;8.484;2023-03-01T07:31:33;19.50;;;16.03;;
8958;SDS011;4514;49.476;8.484;2023-03-01T07:33:58;17.67;;;15.40;;
8958;SDS011;4514;49.476;8.484;2023-03-01T07:36:24;18.03;;;15.40;;
8958;SDS011;4514;49.476;8.484;2023-03-01T07:38:49;19.97;;;15.93;;
8958;SDS011;4514;49.476;8.484;2023-03-01T07:41:15;19.63;;;15.93;;
8958;SDS011;4514;49.476;8.484;2023-03-01T07:43:43;17.30;;;14.27;;
8958;SDS011;4514;49.476;8.484;2023-03-01T07:46:10;17.83;;;14.63;;
8958;SDS011;4514;49.476;8.484;2023-03-01T07:48:36;22.10;;;16.83;;
8958;SDS011;4514;49.476;8.484;2023-03-01T07:51:04;23.10;;;17.43;;
8958;SDS011;4514;49.476;8.484;2023-03-01T07:53:30;19.00;;;15.37;;
8958;SDS011;4514;49.476;8.484;2023-03-01T07:58:33;17.10;;;14.77;;
8958;SDS011;4514;49.476;8.484;2023-03-01T08:01:03;19.00;;;15.40;;
8958;SDS011;4514;49.476;8.484;2023-03-01T08:03:33;17.33;;;15.33;;
8958;SDS011;4514;49.476;8.484;2023-03-01T08:06:02;18.95;;;16.85;;
8958;SDS011;4514;49.476;8.484;2023-03-01T08:08:33;18.63;;;15.20;;
8958;SDS011;4514;49.476;8.484;2023-03-01T08:11:04;20.50;;;15.00;;
8958;SDS011;4514;49.476;8.484;2023-03-01T08:13:33;19.40;;;16.17;;
8958;SDS011;4514;49.476;8.484;2023-03-01T08:16:06;16.63;;;14.87;;
8958;SDS011;4514;49.476;8.484;2023-03-01T08:18:35;18.13;;;16.23;;
8958;SDS011;4514;49.476;8.484;2023-03-01T08:21:04;17.87;;;15.47;;
8958;SDS011;4514;49.476;8.484;2023-03-01T08:23:42;18.27;;;15.67;;
8958;SDS011;4514;49.476;8.484;2023-03-01T08:26:12;16.07;;;14.43;;
8958;SDS011;4514;49.476;8.484;2023-03-01T08:28:39;16.13;;;14.53;;
8958;SDS011;4514;49.476;8.484;2023-03-01T08:31:20;17.07;;;14.67;;
8958;SDS011;4514;49.476;8.484;2023-03-01T08:33:46;18.17;;;14.27;;
8958;SDS011;4514;49.476;8.484;2023-03-01T08:36:22;17.70;;;14.40;;
8958;SDS011;4514;49.476;8.484;2023-03-01T08:38:48;20.23;;;15.67;;
8958;SDS011;4514;49.476;8.484;2023-03-01T08:41:13;17.03;;;14.80;;
8958;SDS011;4514;49.476;8.484;2023-03-01T08:43:41;17.80;;;15.60;;
8958;SDS011;4514;49.476;8.484;2023-03-01T08:46:06;17.43;;;15.07;;
8958;SDS011;4514;49.476;8.484;2023-03-01T08:48:34;18.17;;;15.67;;
8958;SDS011;4514;49.476;8.484;2023-03-01T08:51:13;16.33;;;14.37;;
8958;SDS011;4514;49.476;8.484;2023-03-01T08:53:40;25.00;;;17.20;;
8958;SDS011;4514;49.476;8.484;2023-03-01T08:56:06;17.07;;;14.37;;
8958;SDS011;4514;49.476;8.484;2023-03-01T08:58:32;18.30;;;15.13;;
8958;SDS011;4514;49.476;8.484;2023-03-01T09:01:00;33.07;;;26.27;;
8958;SDS011;4514;49.476;8.484;2023-03-01T09:03:26;18.60;;;14.20;;
8958;SDS011;4514;49.476;8.484;2023-03-01T09:05:52;18.27;;;16.48;;
8958;SDS011;4514;49.476;8.484;2023-03-01T09:08:18;20.83;;;15.87;;
8958;SDS011;4514;49.476;8.484;2023-03-01T09:10:46;16.53;;;14.63;;
8958;SDS011;4514;49.476;8.484;2023-03-01T09:13:11;16.93;;;14.60;;
8958;SDS011;4514;49.476;8.484;2023-03-01T09:15:39;16.20;;;14.50;;
8958;SDS011;4514;49.476;8.484;2023-03-01T09:18:04;16.67;;;14.93;;
8958;SDS011;4514;49.476;8.484;2023-03-01T09:20:30;20.40;;;15.53;;
8958;SDS011;4514;49.476;8.484;2023-03-01T09:22:57;17.60;;;14.90;;
8958;SDS011;4514;49.476;8.484;2023-03-01T09:25:23;16.83;;;15.03;;
8958;SDS011;4514;49.476;8.484;2023-03-01T09:27:52;17.10;;;15.00;;
8958;SDS011;4514;49.476;8.484;2023-03-01T09:30:18;18.47;;;15.60;;
8958;SDS011;4514;49.476;8.484;2023-03-01T09:32:43;17.37;;;14.37;;
8958;SDS011;4514;49.476;8.484;2023-03-01T09:35:09;16.43;;;14.53;;
8958;SDS011;4514;49.476;8.484;2023-03-01T09:37:38;17.13;;;14.83;;
8958;SDS011;4514;49.476;8.484;2023-03-01T09:40:08;16.37;;;14.77;;
8958;SDS011;4514;49.476;8.484;2023-03-01T09:42:45;16.23;;;14.52;;
8958;SDS011;4514;49.476;8.484;2023-03-01T09:47:54;16.17;;;14.50;;
8958;SDS011;4514;49.476;8.484;2023-03-01T09:50:21;16.70;;;14.90;;
8958;SDS011;4514;49.476;8.484;2023-03-01T09:52:52;16.83;;;14.57;;
8958;SDS011;4514;49.476;8.484;2023-03-01T09:55:25;17.48;;;15.57;;
8958;SDS011;4514;49.476;8.484;2023-03-01T10:00:42;17.17;;;15.38;;
8958;SDS011;4514;49.476;8.484;2023-03-01T10:05:50;16.55;;;14.90;;
8958;SDS011;4514;49.476;8.484;2023-03-01T10:08:26;17.27;;;15.57;;
8958;SDS011;4514;49.476;8.484;2023-03-01T10:10:56;17.55;;;15.75;;
8958;SDS011;4514;49.476;8.484;2023-03-01T10:13:24;15.85;;;14.35;;
8958;SDS011;4514;49.476;8.484;2023-03-01T10:15:54;42.60;;;38.00;;
8958;SDS011;4514;49.476;8.484;2023-03-01T10:18:23;19.42;;;17.35;;
8958;SDS011;4514;49.476;8.484;2023-03-01T10:21:00;18.15;;;15.90;;
8958;SDS011;4514;49.476;8.484;2023-03-01T10:23:28;17.17;;;15.48;;
8958;SDS011;4514;49.476;8.484;2023-03-01T10:31:33;18.05;;;16.25;;
8958;SDS011;4514;49.476;8.484;2023-03-01T10:34:11;17.95;;;15.98;;
8958;SDS011;4514;49.476;8.484;2023-03-01T10:36:40;15.88;;;14.40;;
8958;SDS011;4514;49.476;8.484;2023-03-01T10:39:20;17.13;;;15.35;;
8958;SDS011;4514;49.476;8.484;2023-03-01T10:47:24;18.40;;;16.48;;
8958;SDS011;4514;49.476;8.484;2023-03-01T10:49:58;18.25;;;16.35;;
8958;SDS011;4514;49.476;8.484;2023-03-01T10:52:34;18.52;;;16.63;;
8958;SDS011;4514;49.476;8.484;2023-03-01T10:55:20;17.38;;;15.52;;
8958;SDS011;4514;49.476;8.484;2023-03-01T10:57:50;18.10;;;16.35;;
8958;SDS011;4514;49.476;8.484;2023-03-01T11:00:31;17.77;;;16.08;;
8958;SDS011;4514;49.476;8.484;2023-03-01T11:05:24;17.77;;;16.05;;
8958;SDS011;4514;49.476;8.484;2023-03-01T11:07:57;15.82;;;14.40;;
8958;SDS011;4514;49.476;8.484;2023-03-01T11:10:25;16.48;;;14.90;;
8958;SDS011;4514;49.476;8.484;2023-03-01T11:12:51;17.67;;;15.88;;
8958;SDS011;4514;49.476;8.484;2023-03-01T11:15:23;26.50;;;23.90;;
8958;SDS011;4514;49.476;8.484;2023-03-01T11:17:50;18.60;;;16.90;;
8958;SDS011;4514;49.476;8.484;2023-03-01T11:20:22;17.55;;;15.90;;
8958;SDS011;4514;49.476;8.484;2023-03-01T11:22:55;18.25;;;16.45;;
8958;SDS011;4514;49.476;8.484;2023-03-01T11:25:25;16.52;;;15.02;;
8958;SDS011;4514;49.476;8.484;2023-03-01T11:27:52;17.35;;;15.63;;
8958;SDS011;4514;49.476;8.484;2023-03-01T11:33:18;17.15;;;15.45;;
8958;SDS011;4514;49.476;8.484;2023-03-01T11:35:50;17.50;;;15.90;;
8958;SDS011;4514;49.476;8.484;2023-03-01T11:38:23;18.33;;;15.25;;
8958;SDS011;4514;49.476;8.484;2023-03-01T11:43:44;16.58;;;14.98;;
8958;SDS011;4514;49.476;8.484;2023-03-01T11:56:41;17.15;;;15.43;;
8958;SDS011;4514;49.476;8.484;2023-03-01T12:02:21;16.60;;;14.85;;
8958;SDS011;4514;49.476;8.484;2023-03-01T12:05:56;16.65;;;15.00;;
8958;SDS011;4514;49.476;8.484;2023-03-01T12:10:49;18.17;;;16.27;;
8958;SDS011;4514;49.476;8.484;2023-03-01T12:16:07;16.63;;;15.02;;
8958;SDS011;4514;49.476;8.484;2023-03-01T12:24:58;16.67;;;15.00;;
8958;SDS011;4514;49.476;8.484;2023-03-01T12:27:37;17.50;;;15.65;;
8958;SDS011;4514;49.476;8.484;2023-03-01T12:35:38;16.60;;;15.00;;
8958;SDS011;4514;49.476;8.484;2023-03-01T12:38:33;18.17;;;16.58;;
8958;SDS011;4514;49.476;8.484;2023-03-01T12:41:14;16.45;;;14.85;;
8958;SDS011;4514;49.476;8.484;2023-03-01T12:46:41;16.23;;;14.65;;
8958;SDS011;4514;49.476;8.484;2023-03-01T12:49:10;17.05;;;14.32;;
8958;SDS011;4514;49.476;8.484;2023-03-01T12:51:38;16.42;;;14.82;;
8958;SDS011;4514;49.476;8.484;2023-03-01T12:54:07;15.48;;;13.88;;
8958;SDS011;4514;49.476;8.484;2023-03-01T12:56:42;15.48;;;13.88;;
8958;SDS011;4514;49.476;8.484;2023-03-01T13:07:29;15.10;;;13.70;;
8958;SDS011;4514;49.476;8.484;2023-03-01T13:10:46;15.23;;;13.63;;
8958;SDS011;4514;49.476;8.484;2023-03-01T13:13:00;15.65;;;13.65;;
8958;SDS011;4514;49.476;8.484;2023-03-01T13:15:29;15.40;;;13.90;;
8958;SDS011;4514;49.476;8.484;2023-03-01T13:18:42;14.07;;;12.60;;
8958;SDS011;4514;49.476;8.484;2023-03-01T13:20:51;15.52;;;14.02;;
8958;SDS011;4514;49.476;8.484;2023-03-01T13:30:58;14.05;;;12.52;;
8958;SDS011;4514;49.476;8.484;2023-03-01T13:35:56;14.35;;;12.95;;
8958;SDS011;4514;49.476;8.484;2023-03-01T13:41:11;17.75;;;14.13;;
8958;SDS011;4514;49.476;8.484;2023-03-01T13:43:40;14.13;;;12.75;;
8958;SDS011;4514;49.476;8.484;2023-03-01T13:46:17;17.48;;;12.07;;
8958;SDS011;4514;49.476;8.484;2023-03-01T13:48:45;14.50;;;12.70;;
8958;SDS011;4514;49.476;8.484;2023-03-01T13:51:15;14.40;;;12.90;;
8958;SDS011;4514;49.476;8.484;2023-03-01T13:53:45;13.85;;;12.45;;
8958;SDS011;4514;49.476;8.484;2023-03-01T13:56:56;13.93;;;12.52;;
8958;SDS011;4514;49.476;8.484;2023-03-01T13:59:04;18.45;;;16.55;;
8958;SDS011;4514;49.476;8.484;2023-03-01T14:01:37;15.35;;;13.55;;
8958;SDS011;4514;49.476;8.484;2023-03-01T14:04:21;13.45;;;11.98;;
8958;SDS011;4514;49.476;8.484;2023-03-01T14:06:51;13.48;;;12.07;;
8958;SDS011;4514;49.476;8.484;2023-03-01T14:14:39;13.50;;;12.18;;
8958;SDS011;4514;49.476;8.484;2023-03-01T14:20:37;14.18;;;11.68;;
8958;SDS011;4514;49.476;8.484;2023-03-01T14:23:02;17.60;;;14.52;;
8958;SDS011;4514;49.476;8.484;2023-03-01T14:25:35;13.98;;;12.00;;
8958;SDS011;4514;49.476;8.484;2023-03-01T14:30:49;13.38;;;11.50;;
8958;SDS011;4514;49.476;8.484;2023-03-01T14:33:21;13.73;;;11.83;;
8958;SDS011;4514;49.476;8.484;2023-03-01T14:38:31;15.20;;;11.77;;
8958;SDS011;4514;49.476;8.484;2023-03-01T14:41:06;13.18;;;11.77;;
8958;SDS011;4514;49.476;8.484;2023-03-01T14:43:34;13.63;;;11.93;;
8958;SDS011;4514;49.476;8.484;2023-03-01T14:46:02;12.68;;;11.38;;
8958;SDS011;4514;49.476;8.484;2023-03-01T14:48:28;13.77;;;11.93;;
8958;SDS011;4514;49.476;8.484;2023-03-01T14:50:55;15.02;;;11.55;;
8958;SDS011;4514;49.476;8.484;2023-03-01T14:53:24;12.68;;;11.30;;
8958;SDS011;4514;49.476;8.484;2023-03-01T14:55:54;14.73;;;11.57;;
8958;SDS011;4514;49.476;8.484;2023-03-01T14:58:23;12.27;;;11.07;;
8958;SDS011;4514;49.476;8.484;2023-03-01T15:00:56;13.13;;;11.03;;
8958;SDS011;4514;49.476;8.484;2023-03-01T15:03:34;13.38;;;10.35;;
8958;SDS011;4514;49.476;8.484;2023-03-01T15:06:02;11.68;;;10.32;;
8958;SDS011;4514;49.476;8.484;2023-03-01T15:08:32;12.02;;;10.60;;
8958;SDS011;4514;49.476;8.484;2023-03-01T15:13:29;12.35;;;11.05;;
8958;SDS011;4514;49.476;8.484;2023-03-01T15:16:17;13.82;;;11.35;;
8958;SDS011;4514;49.476;8.484;2023-03-01T15:18:48;11.70;;;10.50;;
8958;SDS011;4514;49.476;8.484;2023-03-01T15:21:26;14.32;;;10.93;;
8958;SDS011;4514;49.476;8.484;2023-03-01T15:23:54;13.18;;;10.15;;
8958;SDS011;4514;49.476;8.484;2023-03-01T15:26:22;12.80;;;10.82;;
8958;SDS011;4514;49.476;8.484;2023-03-01T15:28:54;11.25;;;9.95;;
8958;SDS011;4514;49.476;8.484;2023-03-01T15:31:25;12.13;;;9.90;;
8958;SDS011;4514;49.476;8.484;2023-03-01T15:36:44;13.93;;;12.02;;
8958;SDS011;4514;49.476;8.484;2023-03-01T15:39:27;15.90;;;14.02;;
8958;SDS011;4514;49.476;8.484;2023-03-01T15:42:00;12.55;;;10.23;;
8958;SDS011;4514;49.476;8.484;2023-03-01T15:44:29;13.57;;;10.07;;
8958;SDS011;4514;49.476;8.484;2023-03-01T15:46:55;11.13;;;10.02;;
8958;SDS011;4514;49.476;8.484;2023-03-01T15:52:04;11.52;;;10.00;;
8958;SDS011;4514;49.476;8.484;2023-03-01T15:54:31;12.40;;;9.05;;
8958;SDS011;4514;49.476;8.484;2023-03-01T15:56:56;19.67;;;15.57;;
8958;SDS011;4514;49.476;8.484;2023-03-01T15:59:24;14.30;;;12.48;;
8958;SDS011;4514;49.476;8.484;2023-03-01T16:01:50;12.13;;;10.23;;
8958;SDS011;4514;49.476;8.484;2023-03-01T16:04:16;12.10;;;9.70;;
8958;SDS011;4514;49.476;8.484;2023-03-01T16:06:52;10.17;;;9.17;;
8958;SDS011;4514;49.476;8.484;2023-03-01T16:09:24;13.33;;;10.03;;
8958;SDS011;4514;49.476;8.484;2023-03-01T16:11:54;13.27;;;11.98;;
8958;SDS011;4514;49.476;8.484;2023-03-01T16:14:21;13.75;;;12.18;;
8958;SDS011;4514;49.476;8.484;2023-03-01T16:16:47;12.98;;;10.27;;
8958;SDS011;4514;49.476;8.484;2023-03-01T16:19:13;14.60;;;11.02;;
8958;SDS011;4514;49.476;8.484;2023-03-01T16:21:41;10.27;;;9.27;;
8958;SDS011;4514;49.476;8.484;2023-03-01T16:24:14;10.77;;;9.45;;
8958;SDS011;4514;49.476;8.484;2023-03-01T16:26:39;10.85;;;9.40;;
8958;SDS011;4514;49.476;8.484;2023-03-01T16:29:07;17.02;;;15.23;;
8958;SDS011;4514;49.476;8.484;2023-03-01T16:31:32;13.52;;;11.88;;
8958;SDS011;4514;49.476;8.484;2023-03-01T16:33:58;14.17;;;12.40;;
8958;SDS011;4514;49.476;8.484;2023-03-01T16:36:25;10.50;;;9.50;;
8958;SDS011;4514;49.476;8.484;2023-03-01T16:38:53;10.82;;;9.57;;
8958;SDS011;4514;49.476;8.484;2023-03-01T16:41:20;11.88;;;9.95;;
8958;SDS011;4514;49.476;8.484;2023-03-01T16:43:46;11.10;;;10.00;;
8958;SDS011;4514;49.476;8.484;2023-03-01T16:46:19;17.77;;;13.90;;
8958;SDS011;4514;49.476;8.484;2023-03-01T16:48:49;18.23;;;16.02;;
8958;SDS011;4514;49.476;8.484;2023-03-01T16:51:20;11.40;;;10.20;;
8958;SDS011;4514;49.476;8.484;2023-03-01T16:53:46;10.57;;;9.15;;
8958;SDS011;4514;49.476;8.484;2023-03-01T16:56:13;26.95;;;21.73;;
8958;SDS011;4514;49.476;8.484;2023-03-01T16:58:39;15.83;;;12.10;;
8958;SDS011;4514;49.476;8.484;2023-03-01T17:03:32;12.57;;;10.17;;
8958;SDS011;4514;49.476;8.484;2023-03-01T17:06:00;11.13;;;9.93;;